sensor_id;sensor_type;location;lat;lon;timestamp;pressure;altitude;pressure_sealevel;temperature;humidity
9235;BME280;4652;42.716;23.218;2023-04-01T00:00:19;93934.84;;;11.26;83.71
9235;BME280;4652;42.716;23.218;2023-04-01T00:07:01;93940.19;;;10.61;92.98
9235;BME280;4652;42.716;23.218;2023-04-01T00:13:45;93936.59;;;10.35;95.50
9235;BME280;4652;42.716;23.218;2023-04-01T00:20:27;93928.66;;;10.30;99.16
9235;BME280;4652;42.716;23.218;2023-04-01T00:27:09;93929.34;;;10.44;100.00
9235;BME280;4652;42.716;23.218;2023-04-01T00:33:52;93931.81;;;10.63;100.00
9235;BME280;4652;42.716;23.218;2023-04-01T00:40:36;93910.91;;;10.59;99.20
9235;BME280;4652;42.716;23.218;2023-04-01T00:47:19;93883.63;;;10.52;96.06
9235;BME280;4652;42.716;23.218;2023-04-01T00:54:03;93887.94;;;10.62;94.43
9235;BME280;4652;42.716;23.218;2023-04-01T01:31:58;93823.34;;;10.62;93.72
9235;BME280;4652;42.716;23.218;2023-04-01T01:38:48;93826.34;;;10.52;95.61
9235;BME280;4652;42.716;23.218;2023-04-01T01:45:33;93833.63;;;10.60;96.42
9235;BME280;4652;42.716;23.218;2023-04-01T01:52:17;93825.09;;;10.67;95.28
9235;BME280;4652;42.716;23.218;2023-04-01T01:59:03;93809.19;;;10.39;96.68
9235;BME280;4652;42.716;23.218;2023-04-01T02:05:48;93807.50;;;10.52;97.01
9235;BME280;4652;42.716;23.218;2023-04-01T02:12:33;93798.03;;;10.63;95.43
9235;BME280;4652;42.716;23.218;2023-04-01T02:19:18;93795.31;;;10.63;94.72
9235;BME280;4652;42.716;23.218;2023-04-01T02:26:05;93786.44;;;10.54;98.37
9235;BME280;4652;42.716;23.218;2023-04-01T02:32:48;93799.75;;;10.68;96.17
9235;BME280;4652;42.716;23.218;2023-04-01T02:39:32;93797.03;;;10.59;95.04
9235;BME280;4652;42.716;23.218;2023-04-01T02:46:14;93821.78;;;10.78;93.13
9235;BME280;4652;42.716;23.218;2023-04-01T02:52:56;93826.84;;;10.71;96.47
9235;BME280;4652;42.716;23.218;2023-04-01T02:59:40;93837.56;;;10.54;97.27
9235;BME280;4652;42.716;23.218;2023-04-01T03:06:22;93838.59;;;10.27;100.00
9235;BME280;4652;42.716;23.218;2023-04-01T03:13:04;93858.38;;;10.00;100.00
9235;BME280;4652;42.716;23.218;2023-04-01T03:19:48;93845.88;;;10.83;83.40
9235;BME280;4652;42.716;23.218;2023-04-01T03:26:30;93849.22;;;11.57;75.51
9235;BME280;4652;42.716;23.218;2023-04-01T03:33:12;93820.66;;;11.82;76.88
9235;BME280;4652;42.716;23.218;2023-04-01T03:39:55;93773.41;;;11.85;84.40
9235;BME280;4652;42.716;23.218;2023-04-01T03:46:37;93760.97;;;12.01;76.68
9235;BME280;4652;42.716;23.218;2023-04-01T03:53:19;93736.50;;;12.06;81.78
9235;BME280;4652;42.716;23.218;2023-04-01T04:00:03;93721.19;;;12.18;85.91
9235;BME280;4652;42.716;23.218;2023-04-01T04:06:45;93706.44;;;12.16;88.75
9235;BME280;4652;42.716;23.218;2023-04-01T04:13:28;93712.91;;;11.94;99.03
9235;BME280;4652;42.716;23.218;2023-04-01T04:20:11;93714.31;;;11.54;98.26
9235;BME280;4652;42.716;23.218;2023-04-01T04:26:53;93705.19;;;11.20;100.00
9235;BME280;4652;42.716;23.218;2023-04-01T04:33:35;93698.84;;;10.99;100.00
9235;BME280;4652;42.716;23.218;2023-04-01T04:40:19;93681.44;;;10.88;100.00
9235;BME280;4652;42.716;23.218;2023-04-01T04:47:01;93683.38;;;10.71;100.00
9235;BME280;4652;42.716;23.218;2023-04-01T04:53:44;93677.16;;;10.19;100.00
9235;BME280;4652;42.716;23.218;2023-04-01T05:00:27;93671.28;;;10.17;100.00
9235;BME280;4652;42.716;23.218;2023-04-01T05:07:10;93653.44;;;10.29;100.00
9235;BME280;4652;42.716;23.218;2023-04-01T05:13:52;93635.00;;;9.97;100.00
9235;BME280;4652;42.716;23.218;2023-04-01T05:20:35;93621.69;;;9.83;100.00
9235;BME280;4652;42.716;23.218;2023-04-01T05:27:17;93639.47;;;10.10;100.00
9235;BME280;4652;42.716;23.218;2023-04-01T05:34:00;93612.78;;;11.96;100.00
9235;BME280;4652;42.716;23.218;2023-04-01T05:40:43;93610.09;;;15.55;67.60
9235;BME280;4652;42.716;23.218;2023-04-01T05:47:26;93598.84;;;21.65;50.66
9235;BME280;4652;42.716;23.218;2023-04-01T05:54:08;93580.06;;;26.05;41.82
9235;BME280;4652;42.716;23.218;2023-04-01T06:00:51;93570.13;;;28.99;35.93
9235;BME280;4652;42.716;23.218;2023-04-01T06:07:33;93579.06;;;28.58;35.23
9235;BME280;4652;42.716;23.218;2023-04-01T06:14:23;93579.97;;;21.25;45.53
9235;BME280;4652;42.716;23.218;2023-04-01T06:21:24;93581.03;;;17.75;51.10
9235;BME280;4652;42.716;23.218;2023-04-01T06:28:35;93583.72;;;15.40;57.77
9235;BME280;4652;42.716;23.218;2023-04-01T06:42:53;93578.81;;;13.95;61.18
9235;BME280;4652;42.716;23.218;2023-04-01T06:49:48;93556.84;;;13.84;61.84
9235;BME280;4652;42.716;23.218;2023-04-01T06:56:38;93549.91;;;14.23;63.49
9235;BME280;4652;42.716;23.218;2023-04-01T08:05:19;93521.00;;;13.87;67.02
9235;BME280;4652;42.716;23.218;2023-04-01T08:12:12;93504.31;;;13.85;67.38
9235;BME280;4652;42.716;23.218;2023-04-01T08:19:05;93491.22;;;13.99;69.28
9235;BME280;4652;42.716;23.218;2023-04-01T08:25:56;93493.41;;;14.09;69.10
9235;BME280;4652;42.716;23.218;2023-04-01T08:32:44;93468.75;;;14.98;68.09
9235;BME280;4652;42.716;23.218;2023-04-01T08:39:30;93443.13;;;16.12;62.96
9235;BME280;4652;42.716;23.218;2023-04-01T08:53:38;93420.88;;;18.14;52.21
9235;BME280;4652;42.716;23.218;2023-04-01T09:00:30;93424.78;;;19.23;49.08
9235;BME280;4652;42.716;23.218;2023-04-01T09:07:27;93418.84;;;18.70;49.27
9235;BME280;4652;42.716;23.218;2023-04-01T09:14:26;93416.81;;;18.31;50.81
9235;BME280;4652;42.716;23.218;2023-04-01T09:21:22;93413.69;;;17.99;50.31
9235;BME280;4652;42.716;23.218;2023-04-01T09:28:12;93392.88;;;17.57;51.70
9235;BME280;4652;42.716;23.218;2023-04-01T09:35:05;93363.59;;;17.51;51.54
9235;BME280;4652;42.716;23.218;2023-04-01T09:42:21;93348.53;;;17.87;47.79
9235;BME280;4652;42.716;23.218;2023-04-01T10:04:10;93338.44;;;20.28;46.33
9235;BME280;4652;42.716;23.218;2023-04-01T10:18:31;93303.06;;;18.61;47.08
9235;BME280;4652;42.716;23.218;2023-04-01T10:25:34;93282.66;;;18.07;48.40
9235;BME280;4652;42.716;23.218;2023-04-01T10:39:59;93262.41;;;17.42;48.82
9235;BME280;4652;42.716;23.218;2023-04-01T10:47:23;93231.22;;;17.36;48.50
9235;BME280;4652;42.716;23.218;2023-04-01T10:54:19;93247.16;;;17.64;47.67
9235;BME280;4652;42.716;23.218;2023-04-01T11:01:22;93241.75;;;17.71;47.59
9235;BME280;4652;42.716;23.218;2023-04-01T11:16:01;93245.00;;;17.50;48.80
9235;BME280;4652;42.716;23.218;2023-04-01T11:23:07;93284.63;;;16.91;52.70
9235;BME280;4652;42.716;23.218;2023-04-01T11:30:09;93347.44;;;16.41;57.23
9235;BME280;4652;42.716;23.218;2023-04-01T11:37:05;93442.28;;;15.07;84.07
9235;BME280;4652;42.716;23.218;2023-04-01T11:44:01;93492.31;;;13.46;100.00
9235;BME280;4652;42.716;23.218;2023-04-01T11:50:57;93487.34;;;13.12;100.00
9235;BME280;4652;42.716;23.218;2023-04-01T11:57:53;93497.91;;;13.05;100.00
9235;BME280;4652;42.716;23.218;2023-04-01T12:12:14;93510.31;;;13.54;100.00
9235;BME280;4652;42.716;23.218;2023-04-01T12:19:08;93490.47;;;13.50;100.00
9235;BME280;4652;42.716;23.218;2023-04-01T12:26:04;93513.22;;;14.26;100.00
9235;BME280;4652;42.716;23.218;2023-04-01T12:33:01;93528.84;;;14.04;100.00
9235;BME280;4652;42.716;23.218;2023-04-01T12:39:59;93516.63;;;13.83;100.00
9235;BME280;4652;42.716;23.218;2023-04-01T12:47:06;93486.25;;;13.25;100.00
9235;BME280;4652;42.716;23.218;2023-04-01T12:54:18;93457.16;;;13.10;100.00
9235;BME280;4652;42.716;23.218;2023-04-01T13:08:17;93471.06;;;12.88;100.00
9235;BME280;4652;42.716;23.218;2023-04-01T13:15:22;93459.41;;;13.08;100.00
9235;BME280;4652;42.716;23.218;2023-04-01T13:22:11;93447.69;;;13.52;100.00
9235;BME280;4652;42.716;23.218;2023-04-01T13:29:03;93423.53;;;13.72;100.00
9235;BME280;4652;42.716;23.218;2023-04-01T13:35:55;93398.63;;;14.49;100.00
9235;BME280;4652;42.716;23.218;2023-04-01T13:42:43;93388.50;;;14.19;100.00
9235;BME280;4652;42.716;23.218;2023-04-01T13:56:57;93334.44;;;15.16;100.00
9235;BME280;4652;42.716;23.218;2023-04-01T14:04:02;93336.16;;;15.59;84.86
9235;BME280;4652;42.716;23.218;2023-04-01T14:10:57;93321.06;;;15.61;74.30
9235;BME280;4652;42.716;23.218;2023-04-01T14:17:53;93322.66;;;15.81;69.21
9235;BME280;4652;42.716;23.218;2023-04-01T14:32:04;93288.41;;;16.15;70.56
9235;BME280;4652;42.716;23.218;2023-04-01T14:38:55;93267.09;;;15.75;68.77
9235;BME280;4652;42.716;23.218;2023-04-01T14:46:09;93284.06;;;15.92;67.59
